createdAt,value
2019-02-04T00:04:49.376Z,7.23
2019-02-04T00:09:55.783Z,8.00
2019-02-04T00:15:01.152Z,6.00
2019-02-04T00:20:07.669Z,4.67
2019-02-04T00:25:13.095Z,6.97
2019-02-04T00:30:18.884Z,3.70
2019-02-04T00:35:24.215Z,2.93
2019-02-04T00:40:29.796Z,3.80
2019-02-04T00:45:35.136Z,6.23
2019-02-04T00:50:40.492Z,7.07
2019-02-04T00:55:46.028Z,4.50
2019-02-04T01:00:50.781Z,4.03
2019-02-04T01:05:56.013Z,7.10
2019-02-04T01:11:01.355Z,5.93
2019-02-04T01:16:06.670Z,1.63
2019-02-04T01:21:11.441Z,5.10
2019-02-04T01:26:16.671Z,4.40
2019-02-04T01:31:21.988Z,5.80
2019-02-04T01:36:27.339Z,4.83
2019-02-04T01:41:33.412Z,8.23
2019-02-04T01:46:38.850Z,6.67
2019-02-04T01:51:44.182Z,4.53
2019-02-04T01:56:49.502Z,3.73
2019-02-04T02:01:54.851Z,6.83
2019-02-04T02:07:00.182Z,2.97
2019-02-04T02:12:05.614Z,7.53
2019-02-04T02:17:10.949Z,7.37
2019-02-04T02:22:16.259Z,5.60
2019-02-04T02:27:21.621Z,7.10
2019-02-04T02:32:27.106Z,7.60
2019-02-04T02:37:32.750Z,6.70
2019-02-04T02:42:38.083Z,8.13
2019-02-04T02:47:43.409Z,7.10
2019-02-04T02:52:48.743Z,6.53
2019-02-04T02:57:54.265Z,7.00
2019-02-04T03:02:59.575Z,6.43
2019-02-04T03:08:05.266Z,6.23
2019-02-04T03:13:10.879Z,6.73
2019-02-04T03:18:16.212Z,6.50
2019-02-04T03:23:21.948Z,6.33
2019-02-04T03:28:27.337Z,6.63
2019-02-04T03:33:32.647Z,7.90
2019-02-04T03:38:37.932Z,5.47
2019-02-04T03:43:43.231Z,5.93
2019-02-04T03:48:48.534Z,3.97
2019-02-04T03:53:53.835Z,7.70
2019-02-04T03:58:58.559Z,8.17
2019-02-04T04:04:03.778Z,8.40
2019-02-04T04:09:09.479Z,8.80
2019-02-04T04:14:14.811Z,6.27
2019-02-04T04:19:20.102Z,5.57
2019-02-04T04:24:24.793Z,6.37
2019-02-04T04:29:30.035Z,6.27
2019-02-04T04:34:35.361Z,7.20
2019-02-04T04:39:40.683Z,4.73
2019-02-04T04:44:46.159Z,6.53
2019-02-04T04:49:51.469Z,8.17
2019-02-04T04:54:57.121Z,7.00
2019-02-04T05:00:02.728Z,7.93
2019-02-04T05:05:10.569Z,8.63
2019-02-04T05:10:17.513Z,7.87
2019-02-04T05:15:27.456Z,7.30
2019-02-04T05:20:32.173Z,7.67
2019-02-04T05:25:37.377Z,8.30
2019-02-04T05:30:42.712Z,9.00
2019-02-04T05:35:47.419Z,7.90
2019-02-04T05:40:52.682Z,9.13
2019-02-04T05:45:57.980Z,8.93
2019-02-04T05:51:03.304Z,8.23
2019-02-04T05:56:08.628Z,8.23
2019-02-04T06:01:13.343Z,8.07
2019-02-04T06:06:18.595Z,7.87
2019-02-04T06:11:24.159Z,6.70
2019-02-04T06:16:29.467Z,8.00
2019-02-04T06:21:34.775Z,10.13
2019-02-04T06:26:40.024Z,8.90
2019-02-04T06:31:45.256Z,9.33
2019-02-04T06:36:49.954Z,6.43
2019-02-04T06:41:55.384Z,5.57
2019-02-04T06:47:00.675Z,9.27
2019-02-04T06:52:05.988Z,10.53
2019-02-04T06:57:11.326Z,11.67
2019-02-04T07:02:16.670Z,15.90
2019-02-04T07:07:22.005Z,14.17
2019-02-04T07:12:27.799Z,12.27
2019-02-04T07:17:33.123Z,10.57
2019-02-04T07:22:38.468Z,9.03
2019-02-04T07:27:43.763Z,14.10
2019-02-04T07:32:49.504Z,15.80
2019-02-04T07:37:54.966Z,10.17
2019-02-04T07:43:00.289Z,10.43
2019-02-04T07:48:05.733Z,11.13
2019-02-04T07:53:11.027Z,10.17
2019-02-04T07:58:16.699Z,8.90
2019-02-04T08:03:21.411Z,18.70
2019-02-04T08:08:27.495Z,28.30
2019-02-04T08:13:32.899Z,27.83
2019-02-04T08:18:38.923Z,14.07
2019-02-04T08:23:44.744Z,12.57
2019-02-04T08:28:50.369Z,11.87
2019-02-04T08:33:56.470Z,12.10
2019-02-04T08:39:01.784Z,12.97
2019-02-04T08:44:08.948Z,10.30
2019-02-04T08:49:16.256Z,10.13
2019-02-04T08:54:22.125Z,11.93
2019-02-04T08:59:29.054Z,9.90
2019-02-04T09:04:37.030Z,10.00
2019-02-04T09:09:42.053Z,9.73
2019-02-04T09:14:47.451Z,8.87
2019-02-04T09:19:52.808Z,8.50
2019-02-04T09:24:58.124Z,8.87
2019-02-04T09:30:03.650Z,9.57
2019-02-04T09:35:11.761Z,9.40
2019-02-04T09:40:25.837Z,7.03
2019-02-04T09:45:32.033Z,7.00
2019-02-04T09:50:37.543Z,12.53
2019-02-04T09:55:43.286Z,12.00
2019-02-04T10:00:48.703Z,14.97
2019-02-04T10:05:53.992Z,13.63
2019-02-04T10:10:59.308Z,12.87
2019-02-04T10:16:04.656Z,12.20
2019-02-04T10:21:09.962Z,12.57
2019-02-04T10:26:15.325Z,11.87
2019-02-04T10:31:20.685Z,12.63
2019-02-04T10:36:26.061Z,11.67
2019-02-04T10:41:31.386Z,11.47
2019-02-04T10:46:36.721Z,13.43
2019-02-04T10:51:42.132Z,12.23
2019-02-04T10:56:47.449Z,12.50
2019-02-04T11:01:52.755Z,12.50
2019-02-04T11:06:58.107Z,11.53
2019-02-04T11:12:03.483Z,10.23
2019-02-04T11:17:09.211Z,11.80
2019-02-04T11:22:14.670Z,8.40
2019-02-04T11:27:20.055Z,9.80
2019-02-04T11:32:25.426Z,10.13
2019-02-04T11:37:30.728Z,9.97
2019-02-04T11:42:36.105Z,9.40
2019-02-04T11:47:41.507Z,11.77
2019-02-04T11:52:46.957Z,11.60
2019-02-04T11:57:52.284Z,11.50
2019-02-04T12:02:59.072Z,11.10
2019-02-04T12:08:04.497Z,11.00
2019-02-04T12:13:09.795Z,9.97
2019-02-04T12:18:15.140Z,9.77
2019-02-04T12:23:20.467Z,9.53
2019-02-04T12:28:25.772Z,12.40
2019-02-04T12:33:31.071Z,10.40
2019-02-04T12:38:36.783Z,11.13
2019-02-04T12:43:42.303Z,11.50
2019-02-04T12:48:47.600Z,12.13
2019-02-04T12:53:52.978Z,11.80
2019-02-04T12:58:58.333Z,12.33
2019-02-04T13:04:03.656Z,12.57
2019-02-04T13:09:10.405Z,10.93
2019-02-04T13:14:15.743Z,11.77
2019-02-04T13:19:21.119Z,13.67
2019-02-04T13:24:26.860Z,14.00
2019-02-04T13:29:32.263Z,13.77
2019-02-04T13:34:37.596Z,13.33
2019-02-04T13:39:42.915Z,14.17
2019-02-04T13:44:48.628Z,11.77
2019-02-04T13:49:53.951Z,13.50
2019-02-04T13:54:59.350Z,13.27
2019-02-04T14:00:07.267Z,14.13
2019-02-04T14:05:12.768Z,16.97
2019-02-04T14:10:26.379Z,15.40
2019-02-04T14:15:35.283Z,14.50
2019-02-04T14:20:38.547Z,16.03
2019-02-04T14:25:43.776Z,18.87
2019-02-04T14:30:49.559Z,15.80
2019-02-04T14:35:54.857Z,13.33
2019-02-04T14:40:59.731Z,10.07
2019-02-04T14:46:23.717Z,10.53
2019-02-04T14:51:55.523Z,14.33
2019-02-04T14:57:07.327Z,11.47
2019-02-04T15:02:26.824Z,11.33
2019-02-04T15:07:49.784Z,15.80
2019-02-04T15:13:08.274Z,13.37
2019-02-04T15:18:32.913Z,12.33
2019-02-04T15:24:08.128Z,18.20
2019-02-04T15:29:30.215Z,20.30
2019-02-04T15:35:34.555Z,14.93
2019-02-04T15:40:58.133Z,19.80
2019-02-04T15:46:24.571Z,15.60
2019-02-04T15:51:31.471Z,21.77
2019-02-04T15:56:36.671Z,15.37
2019-02-04T16:01:42.194Z,21.87
2019-02-04T16:06:47.891Z,12.67
2019-02-04T16:11:53.184Z,21.33
2019-02-04T16:16:58.500Z,19.20
2019-02-04T16:22:03.200Z,18.40
2019-02-04T16:27:08.428Z,19.00
2019-02-04T16:32:13.839Z,17.67
2019-02-04T16:37:19.144Z,19.07
2019-02-04T16:42:24.848Z,18.27
2019-02-04T16:47:29.570Z,20.77
2019-02-04T16:52:34.169Z,18.93
2019-02-04T16:57:39.536Z,19.43
2019-02-04T17:02:45.799Z,20.27
2019-02-04T17:07:51.100Z,17.83
2019-02-04T17:12:57.388Z,18.30
2019-02-04T17:18:03.327Z,17.97
2019-02-04T17:23:08.754Z,16.90
2019-02-04T17:28:14.243Z,18.40
2019-02-04T17:33:20.761Z,14.37
2019-02-04T17:38:25.427Z,17.13
2019-02-04T17:43:30.676Z,17.70
2019-02-04T17:48:36.031Z,18.83
2019-02-04T17:53:40.995Z,17.70
2019-02-04T17:58:45.684Z,15.13
2019-02-04T18:03:51.988Z,13.07
2019-02-04T18:08:57.296Z,17.07
2019-02-04T18:14:03.008Z,15.63
2019-02-04T18:19:07.800Z,13.70
2019-02-04T18:24:12.397Z,13.13
2019-02-04T18:29:17.017Z,14.67
2019-02-04T18:34:22.806Z,15.87
2019-02-04T18:39:28.171Z,20.43
2019-02-04T18:44:33.219Z,15.47
2019-02-04T18:49:38.344Z,16.17
2019-02-04T18:54:43.975Z,18.00
2019-02-04T18:59:49.371Z,11.23
2019-02-04T19:04:54.071Z,13.57
2019-02-04T19:09:59.440Z,14.03
2019-02-04T19:15:04.367Z,16.57
2019-02-04T19:20:10.634Z,13.47
2019-02-04T19:25:16.830Z,15.23
2019-02-04T19:30:33.633Z,15.50
2019-02-04T19:35:41.277Z,12.83
2019-02-04T19:40:46.934Z,18.23
2019-02-04T19:45:52.291Z,17.00
2019-02-04T19:50:57.011Z,22.63
2019-02-04T19:56:02.782Z,17.17
2019-02-04T20:01:08.055Z,16.73
2019-02-04T20:06:12.751Z,19.60
2019-02-04T20:11:17.772Z,20.70
2019-02-04T20:16:22.487Z,13.60
2019-02-04T20:21:28.055Z,12.63
2019-02-04T20:26:32.897Z,19.33
2019-02-04T20:31:38.291Z,8.90
2019-02-04T20:36:43.038Z,16.77
2019-02-04T20:41:48.223Z,15.93
2019-02-04T20:46:53.487Z,12.83
2019-02-04T20:51:59.592Z,15.80
2019-02-04T20:57:05.682Z,15.83
2019-02-04T21:02:12.520Z,14.77
2019-02-04T21:07:18.296Z,15.93
2019-02-04T21:12:23.964Z,14.37
2019-02-04T21:17:30.634Z,13.90
2019-02-04T21:22:36.079Z,15.57
2019-02-04T21:27:42.477Z,13.60
2019-02-04T21:32:49.074Z,14.20
2019-02-04T21:37:55.967Z,9.80
2019-02-04T21:43:01.777Z,15.03
2019-02-04T21:48:08.441Z,14.17
2019-02-04T21:53:14.276Z,14.57
2019-02-04T21:58:21.165Z,15.53
2019-02-04T22:03:27.547Z,12.77
2019-02-04T22:08:32.363Z,12.20
2019-02-04T22:13:37.638Z,11.20
2019-02-04T22:18:42.932Z,13.30
2019-02-04T22:23:47.622Z,10.17
2019-02-04T22:28:52.823Z,11.17
2019-02-04T22:33:58.197Z,12.57
2019-02-04T22:39:05.368Z,9.43
2019-02-04T22:44:10.939Z,9.00
2019-02-04T22:49:16.231Z,10.93
2019-02-04T22:54:21.536Z,11.63
2019-02-04T22:59:26.848Z,14.63
2019-02-04T23:04:32.178Z,11.00
2019-02-04T23:09:37.574Z,11.90
2019-02-04T23:14:43.411Z,12.47
2019-02-04T23:19:49.024Z,11.00
2019-02-04T23:24:54.688Z,15.43
2019-02-04T23:30:01.274Z,11.27
2019-02-04T23:35:09.023Z,11.57
2019-02-04T23:40:16.603Z,12.70
2019-02-04T23:45:21.254Z,12.07
2019-02-04T23:50:26.180Z,11.40
2019-02-04T23:55:31.879Z,7.70
